»·PEaware :: N434EP KBFI-KOLM

N434EP :: KBFI-KOLM

FLIGHT INFORMATION

Flight Status: Arrived
Operator: Privately registered:
United States
More flights under this callsign
Pilot: Drew H. (3199)
Aircraft: BEECH AIRCRAFT BARON
(BE58)
More flights by this aircraft type
Origin: KBFI Boeing Field/King Co Intl
United States
Destination: KOLM Olympia
United States
More flights between these airports :: More routes between these airports
Route: NRVNA1 NRVNA OLM
File this flight plan on PilotEdge
Remarks:
Altitude:
(Current/Filed)
6,000ft
Speed:
(Current/Filed)
160kts
Departed: 08-Feb-19 06:45 PM
Arrived: 08-Feb-19 07:07 PM
Distance/Time
Traveled:
41nm/0:22
Distance/Time
To Go:
Arrived

Flight Plot

Page will automatically refresh every two minutes.

Flight plan parsing failed; only flown route is shown


Map Options




Map Legend


Flown Route
Filed Route
Departure Airport
Arrival Airport
Navaid (VOR, NDB)
Fix

Horizontal Profiles

Position Reports

Time Latitude Longitude Heading Altitude Ground
Speed
08-Feb-19 18:13 47.536929 -122.304701 142 24ft 0kts
08-Feb-19 18:14 47.536929 -122.304701 142 24ft 0kts
08-Feb-19 18:15 47.536929 -122.304701 142 24ft 0kts
08-Feb-19 18:16 47.536929 -122.304701 142 24ft 0kts
08-Feb-19 18:17 47.536929 -122.304701 142 24ft 0kts
08-Feb-19 18:18 47.536929 -122.304701 142 24ft 0kts
08-Feb-19 18:19 47.536929 -122.304701 142 24ft 0kts
08-Feb-19 18:20 47.536929 -122.304701 142 24ft 0kts
08-Feb-19 18:21 47.536929 -122.304701 142 24ft 0kts
08-Feb-19 18:22 47.536929 -122.304701 142 24ft 0kts
08-Feb-19 18:23 47.536929 -122.304701 142 24ft 0kts
08-Feb-19 18:24 47.536929 -122.304701 142 24ft 0kts
08-Feb-19 18:25 47.536929 -122.304701 142 24ft 0kts
08-Feb-19 18:26 47.536929 -122.304701 142 24ft 0kts
08-Feb-19 18:27 47.536929 -122.304701 142 24ft 0kts
08-Feb-19 18:28 47.536929 -122.304701 141 24ft 0kts
08-Feb-19 18:29 47.536928 -122.304701 141 24ft 0kts
08-Feb-19 18:30 47.536929 -122.304701 141 24ft 0kts
08-Feb-19 18:31 47.536929 -122.304701 141 24ft 0kts
08-Feb-19 18:32 47.536929 -122.304701 141 24ft 0kts
08-Feb-19 18:33 47.536929 -122.304701 141 24ft 0kts
08-Feb-19 18:34 47.536929 -122.304701 141 24ft 0kts
08-Feb-19 18:35 47.536929 -122.304701 141 24ft 0kts
08-Feb-19 18:36 47.536929 -122.304701 141 24ft 0kts
08-Feb-19 18:37 47.536901 -122.304690 179 24ft 0kts
08-Feb-19 18:38 47.536863 -122.304738 243 24ft 0kts
08-Feb-19 18:39 47.536862 -122.304744 243 24ft 0kts
08-Feb-19 18:40 47.536824 -122.304860 247 24ft 5kts
08-Feb-19 18:41 47.539757 -122.307997 330 24ft 16kts
08-Feb-19 18:43 47.540856 -122.310187 240 24ft 0kts
08-Feb-19 18:44 47.540576 -122.310885 232 24ft 12kts
08-Feb-19 18:45 47.521127 -122.294814 135 834ft 107kts
08-Feb-19 18:46 47.493606 -122.273708 149 2241ft 113kts
08-Feb-19 18:47 47.461583 -122.263261 207 3519ft 123kts
08-Feb-19 18:48 47.452359 -122.309485 284 4572ft 129kts
08-Feb-19 18:49 47.456118 -122.361550 277 5650ft 129kts
08-Feb-19 18:50 47.454591 -122.419261 272 6165ft 158kts
08-Feb-19 18:51 47.456219 -122.489179 275 6148ft 176kts
08-Feb-19 18:52 47.458152 -122.561914 275 6146ft 174kts
08-Feb-19 18:53 47.446679 -122.624097 216 6020ft 163kts
08-Feb-19 18:54 47.412441 -122.665142 220 5332ft 163kts
08-Feb-19 18:55 47.378051 -122.709654 219 4594ft 163kts
08-Feb-19 18:56 47.343596 -122.752876 219 4037ft 157kts
08-Feb-19 18:57 47.309658 -122.794093 204 4043ft 156kts
08-Feb-19 18:58 47.269461 -122.814357 191 4035ft 147kts
08-Feb-19 18:59 47.230954 -122.827270 188 4038ft 135kts
08-Feb-19 19:00 47.194195 -122.838373 188 4044ft 139kts
08-Feb-19 19:00 47.161832 -122.847989 188 3881ft 144kts
08-Feb-19 19:02 47.115336 -122.861724 188 3029ft 146kts
08-Feb-19 19:03 47.074732 -122.873693 188 2224ft 147kts
08-Feb-19 19:03 47.041469 -122.883475 188 1554ft 143kts
08-Feb-19 19:05 46.996795 -122.896593 188 665ft 136kts
08-Feb-19 19:06 46.966348 -122.905283 193 212ft 48kts
08-Feb-19 19:06 46.963551 -122.904282 93 212ft 9kts
08-Feb-19 19:07 46.965172 -122.901656 11 212ft 17kts
08-Feb-19 19:09 46.970805 -122.899070 48 212ft 19kts
08-Feb-19 19:09 46.973963 -122.897778 324 212ft 19kts
08-Feb-19 19:10 46.974634 -122.898075 50 212ft 0kts

Navigation Log

Ident Type
Flight plan parsing failed, navigation log unavailable